sensor_id;sensor_type;location;lat;lon;timestamp;temperature;humidity
21540;DHT22;10931;52.164;5.518;2022-09-09T00:00:11;26.30;59.70
21540;DHT22;10931;52.164;5.518;2022-09-09T00:09:27;26.20;59.60
21540;DHT22;10931;52.164;5.518;2022-09-09T00:15:05;26.20;59.60
21540;DHT22;10931;52.164;5.518;2022-09-09T00:17:43;26.20;59.60
21540;DHT22;10931;52.164;5.518;2022-09-09T00:23:25;26.20;59.60
21540;DHT22;10931;52.164;5.518;2022-09-09T00:31:33;26.20;59.60
21540;DHT22;10931;52.164;5.518;2022-09-09T00:34:09;26.20;59.60
21540;DHT22;10931;52.164;5.518;2022-09-09T00:36:42;26.20;59.60
21540;DHT22;10931;52.164;5.518;2022-09-09T00:39:32;26.20;59.60
21540;DHT22;10931;52.164;5.518;2022-09-09T00:42:24;26.10;59.60
21540;DHT22;10931;52.164;5.518;2022-09-09T00:47:53;26.10;59.60
21540;DHT22;10931;52.164;5.518;2022-09-09T00:55:59;26.10;59.60
21540;DHT22;10931;52.164;5.518;2022-09-09T00:58:33;26.10;59.60
21540;DHT22;10931;52.164;5.518;2022-09-09T01:01:07;26.10;59.60
21540;DHT22;10931;52.164;5.518;2022-09-09T01:03:55;26.10;59.60
21540;DHT22;10931;52.164;5.518;2022-09-09T01:06:57;26.10;59.60
21540;DHT22;10931;52.164;5.518;2022-09-09T01:09:42;26.00;59.50
21540;DHT22;10931;52.164;5.518;2022-09-09T01:12:17;26.00;59.50
21540;DHT22;10931;52.164;5.518;2022-09-09T01:15:24;26.00;59.60
21540;DHT22;10931;52.164;5.518;2022-09-09T01:20:25;26.00;59.60
21540;DHT22;10931;52.164;5.518;2022-09-09T01:23:09;26.00;59.60
21540;DHT22;10931;52.164;5.518;2022-09-09T01:28:22;26.00;59.50
21540;DHT22;10931;52.164;5.518;2022-09-09T01:30:50;26.00;59.60
21540;DHT22;10931;52.164;5.518;2022-09-09T01:33:17;26.00;59.60
21540;DHT22;10931;52.164;5.518;2022-09-09T01:35:50;26.00;59.60
21540;DHT22;10931;52.164;5.518;2022-09-09T01:38:20;25.90;59.50
21540;DHT22;10931;52.164;5.518;2022-09-09T01:40:46;26.00;59.60
21540;DHT22;10931;52.164;5.518;2022-09-09T01:43:12;25.90;59.50
21540;DHT22;10931;52.164;5.518;2022-09-09T01:45:39;25.90;59.50
21540;DHT22;10931;52.164;5.518;2022-09-09T01:48:06;25.90;59.50
21540;DHT22;10931;52.164;5.518;2022-09-09T01:50:33;25.90;59.50
21540;DHT22;10931;52.164;5.518;2022-09-09T01:53:02;25.90;59.50
21540;DHT22;10931;52.164;5.518;2022-09-09T01:55:36;25.90;59.50
21540;DHT22;10931;52.164;5.518;2022-09-09T02:03:35;25.90;59.50
21540;DHT22;10931;52.164;5.518;2022-09-09T02:06:30;25.90;59.50
21540;DHT22;10931;52.164;5.518;2022-09-09T02:09:02;25.90;59.50
21540;DHT22;10931;52.164;5.518;2022-09-09T02:11:32;25.90;59.50
21540;DHT22;10931;52.164;5.518;2022-09-09T02:17:09;25.90;59.50
21540;DHT22;10931;52.164;5.518;2022-09-09T02:19:52;25.80;59.50
21540;DHT22;10931;52.164;5.518;2022-09-09T02:22:23;25.90;59.50
21540;DHT22;10931;52.164;5.518;2022-09-09T02:24:57;25.80;59.50
21540;DHT22;10931;52.164;5.518;2022-09-09T02:27:27;25.80;59.50
21540;DHT22;10931;52.164;5.518;2022-09-09T02:29:54;25.80;59.50
21540;DHT22;10931;52.164;5.518;2022-09-09T02:32:31;25.80;59.50
21540;DHT22;10931;52.164;5.518;2022-09-09T02:35:03;25.80;59.50
21540;DHT22;10931;52.164;5.518;2022-09-09T02:37:40;25.80;59.50
21540;DHT22;10931;52.164;5.518;2022-09-09T02:40:12;25.80;59.50
21540;DHT22;10931;52.164;5.518;2022-09-09T02:42:45;25.80;59.50
21540;DHT22;10931;52.164;5.518;2022-09-09T02:45:29;25.80;59.50
21540;DHT22;10931;52.164;5.518;2022-09-09T02:56:51;25.70;59.40
21540;DHT22;10931;52.164;5.518;2022-09-09T02:59:25;25.70;59.40
21540;DHT22;10931;52.164;5.518;2022-09-09T03:02:01;25.70;59.40
21540;DHT22;10931;52.164;5.518;2022-09-09T03:04:37;25.70;59.40
21540;DHT22;10931;52.164;5.518;2022-09-09T03:07:10;25.70;59.40
21540;DHT22;10931;52.164;5.518;2022-09-09T03:09:46;25.70;59.40
21540;DHT22;10931;52.164;5.518;2022-09-09T03:12:17;25.70;59.40
21540;DHT22;10931;52.164;5.518;2022-09-09T03:14:43;25.70;59.40
21540;DHT22;10931;52.164;5.518;2022-09-09T03:17:13;25.60;59.40
21540;DHT22;10931;52.164;5.518;2022-09-09T03:19:44;25.60;59.30
21540;DHT22;10931;52.164;5.518;2022-09-09T03:22:12;25.60;59.40
21540;DHT22;10931;52.164;5.518;2022-09-09T03:24:42;25.60;59.40
21540;DHT22;10931;52.164;5.518;2022-09-09T03:27:08;25.60;59.30
21540;DHT22;10931;52.164;5.518;2022-09-09T03:29:38;25.60;59.40
21540;DHT22;10931;52.164;5.518;2022-09-09T03:32:08;25.60;59.40
21540;DHT22;10931;52.164;5.518;2022-09-09T03:34:48;25.60;59.30
21540;DHT22;10931;52.164;5.518;2022-09-09T03:37:23;25.60;59.30
21540;DHT22;10931;52.164;5.518;2022-09-09T03:39:56;25.60;59.30
21540;DHT22;10931;52.164;5.518;2022-09-09T03:42:22;25.60;59.40
21540;DHT22;10931;52.164;5.518;2022-09-09T03:45:13;25.60;59.40
21540;DHT22;10931;52.164;5.518;2022-09-09T03:47:39;25.60;59.40
21540;DHT22;10931;52.164;5.518;2022-09-09T03:50:06;25.50;59.30
21540;DHT22;10931;52.164;5.518;2022-09-09T03:52:44;25.60;59.30
21540;DHT22;10931;52.164;5.518;2022-09-09T03:55:12;25.50;59.30
21540;DHT22;10931;52.164;5.518;2022-09-09T03:57:40;25.50;59.30
21540;DHT22;10931;52.164;5.518;2022-09-09T04:00:07;25.50;59.30
21540;DHT22;10931;52.164;5.518;2022-09-09T04:02:50;25.50;59.30
21540;DHT22;10931;52.164;5.518;2022-09-09T04:05:20;25.50;59.30
21540;DHT22;10931;52.164;5.518;2022-09-09T04:07:45;25.50;59.30
21540;DHT22;10931;52.164;5.518;2022-09-09T04:10:18;25.50;59.30
21540;DHT22;10931;52.164;5.518;2022-09-09T04:12:46;25.50;59.30
21540;DHT22;10931;52.164;5.518;2022-09-09T04:15:14;25.50;59.30
21540;DHT22;10931;52.164;5.518;2022-09-09T04:17:39;25.40;59.20
21540;DHT22;10931;52.164;5.518;2022-09-09T04:20:05;25.40;59.20
21540;DHT22;10931;52.164;5.518;2022-09-09T04:22:35;25.40;59.20
21540;DHT22;10931;52.164;5.518;2022-09-09T04:25:16;25.40;59.20
21540;DHT22;10931;52.164;5.518;2022-09-09T04:27:58;25.40;59.20
21540;DHT22;10931;52.164;5.518;2022-09-09T04:30:30;25.40;59.20
21540;DHT22;10931;52.164;5.518;2022-09-09T04:33:07;25.40;59.20
21540;DHT22;10931;52.164;5.518;2022-09-09T04:35:46;25.40;59.20
21540;DHT22;10931;52.164;5.518;2022-09-09T04:38:13;25.40;59.20
21540;DHT22;10931;52.164;5.518;2022-09-09T04:40:57;25.30;59.20
21540;DHT22;10931;52.164;5.518;2022-09-09T04:43:25;25.30;59.10
21540;DHT22;10931;52.164;5.518;2022-09-09T04:45:52;25.40;59.20
21540;DHT22;10931;52.164;5.518;2022-09-09T04:48:26;25.40;59.20
21540;DHT22;10931;52.164;5.518;2022-09-09T04:51:05;25.30;59.20
21540;DHT22;10931;52.164;5.518;2022-09-09T04:53:35;25.30;59.20
21540;DHT22;10931;52.164;5.518;2022-09-09T04:56:18;25.30;59.10
21540;DHT22;10931;52.164;5.518;2022-09-09T04:58:49;25.30;59.10
21540;DHT22;10931;52.164;5.518;2022-09-09T05:01:18;25.30;59.20
21540;DHT22;10931;52.164;5.518;2022-09-09T05:03:45;25.30;59.20
21540;DHT22;10931;52.164;5.518;2022-09-09T05:06:19;25.30;59.10
21540;DHT22;10931;52.164;5.518;2022-09-09T05:08:45;25.30;59.10
21540;DHT22;10931;52.164;5.518;2022-09-09T05:11:22;25.30;59.20
21540;DHT22;10931;52.164;5.518;2022-09-09T05:13:50;25.30;59.20
21540;DHT22;10931;52.164;5.518;2022-09-09T05:16:17;25.30;59.20
21540;DHT22;10931;52.164;5.518;2022-09-09T05:18:43;25.30;59.20
21540;DHT22;10931;52.164;5.518;2022-09-09T05:21:10;25.30;59.20
21540;DHT22;10931;52.164;5.518;2022-09-09T05:23:37;25.30;59.20
21540;DHT22;10931;52.164;5.518;2022-09-09T05:26:15;25.30;59.20
21540;DHT22;10931;52.164;5.518;2022-09-09T05:28:48;25.20;59.10
21540;DHT22;10931;52.164;5.518;2022-09-09T05:31:15;25.20;59.10
21540;DHT22;10931;52.164;5.518;2022-09-09T05:33:47;25.20;59.10
21540;DHT22;10931;52.164;5.518;2022-09-09T05:36:24;25.20;59.20
21540;DHT22;10931;52.164;5.518;2022-09-09T05:38:51;25.20;59.20
21540;DHT22;10931;52.164;5.518;2022-09-09T05:41:29;25.20;59.10
21540;DHT22;10931;52.164;5.518;2022-09-09T05:43:58;25.20;59.20
21540;DHT22;10931;52.164;5.518;2022-09-09T05:46:29;25.20;59.10
21540;DHT22;10931;52.164;5.518;2022-09-09T05:49:21;25.20;59.10
21540;DHT22;10931;52.164;5.518;2022-09-09T05:51:52;25.20;59.10
21540;DHT22;10931;52.164;5.518;2022-09-09T05:54:20;25.10;59.10
21540;DHT22;10931;52.164;5.518;2022-09-09T05:56:58;25.10;59.10
21540;DHT22;10931;52.164;5.518;2022-09-09T05:59:24;25.20;59.10
21540;DHT22;10931;52.164;5.518;2022-09-09T06:01:50;25.10;59.10
21540;DHT22;10931;52.164;5.518;2022-09-09T06:04:16;25.10;59.10
21540;DHT22;10931;52.164;5.518;2022-09-09T06:07:05;25.10;59.10
21540;DHT22;10931;52.164;5.518;2022-09-09T06:19:45;25.10;59.10
21540;DHT22;10931;52.164;5.518;2022-09-09T06:22:13;25.10;59.10
21540;DHT22;10931;52.164;5.518;2022-09-09T06:31:36;25.00;59.10
21540;DHT22;10931;52.164;5.518;2022-09-09T06:34:28;25.00;59.10
21540;DHT22;10931;52.164;5.518;2022-09-09T06:37:01;25.00;59.10
21540;DHT22;10931;52.164;5.518;2022-09-09T06:42:54;25.00;59.10
21540;DHT22;10931;52.164;5.518;2022-09-09T06:48:08;25.00;59.10
21540;DHT22;10931;52.164;5.518;2022-09-09T06:50:34;25.00;59.10
21540;DHT22;10931;52.164;5.518;2022-09-09T06:53:02;25.00;59.10
21540;DHT22;10931;52.164;5.518;2022-09-09T06:55:31;25.00;59.10
21540;DHT22;10931;52.164;5.518;2022-09-09T06:58:00;25.00;59.10
21540;DHT22;10931;52.164;5.518;2022-09-09T07:00:28;25.00;59.10
21540;DHT22;10931;52.164;5.518;2022-09-09T07:02:55;25.00;59.10
21540;DHT22;10931;52.164;5.518;2022-09-09T07:05:21;24.90;59.10
21540;DHT22;10931;52.164;5.518;2022-09-09T07:07:55;24.90;59.10
21540;DHT22;10931;52.164;5.518;2022-09-09T07:10:21;25.00;59.20
21540;DHT22;10931;52.164;5.518;2022-09-09T07:12:51;25.00;59.20
21540;DHT22;10931;52.164;5.518;2022-09-09T07:15:18;25.00;59.30
21540;DHT22;10931;52.164;5.518;2022-09-09T07:17:44;24.90;59.30
21540;DHT22;10931;52.164;5.518;2022-09-09T07:20:10;24.90;59.30
21540;DHT22;10931;52.164;5.518;2022-09-09T07:22:55;24.90;59.40
21540;DHT22;10931;52.164;5.518;2022-09-09T07:25:24;24.90;59.50
21540;DHT22;10931;52.164;5.518;2022-09-09T07:28:06;24.90;59.50
21540;DHT22;10931;52.164;5.518;2022-09-09T07:30:35;24.90;59.60
21540;DHT22;10931;52.164;5.518;2022-09-09T07:33:07;24.90;59.60
21540;DHT22;10931;52.164;5.518;2022-09-09T07:35:35;24.90;59.70
21540;DHT22;10931;52.164;5.518;2022-09-09T07:38:12;24.90;59.60
21540;DHT22;10931;52.164;5.518;2022-09-09T07:40:44;24.90;59.60
21540;DHT22;10931;52.164;5.518;2022-09-09T07:43:28;24.90;59.70
21540;DHT22;10931;52.164;5.518;2022-09-09T07:46:00;24.90;59.70
21540;DHT22;10931;52.164;5.518;2022-09-09T07:48:29;24.90;59.70
21540;DHT22;10931;52.164;5.518;2022-09-09T07:51:17;24.90;59.70
21540;DHT22;10931;52.164;5.518;2022-09-09T07:54:14;24.90;59.70
21540;DHT22;10931;52.164;5.518;2022-09-09T07:56:43;24.90;59.70
21540;DHT22;10931;52.164;5.518;2022-09-09T07:59:09;24.80;59.60
21540;DHT22;10931;52.164;5.518;2022-09-09T08:01:47;24.90;59.70
21540;DHT22;10931;52.164;5.518;2022-09-09T08:04:16;24.90;59.70
21540;DHT22;10931;52.164;5.518;2022-09-09T08:06:54;24.90;59.70
21540;DHT22;10931;52.164;5.518;2022-09-09T08:09:21;24.90;59.70
21540;DHT22;10931;52.164;5.518;2022-09-09T08:11:58;24.90;59.70
21540;DHT22;10931;52.164;5.518;2022-09-09T08:14:27;24.90;59.70
21540;DHT22;10931;52.164;5.518;2022-09-09T08:16:52;24.90;60.40
21540;DHT22;10931;52.164;5.518;2022-09-09T08:19:26;24.80;59.70
21540;DHT22;10931;52.164;5.518;2022-09-09T08:21:55;24.80;59.70
21540;DHT22;10931;52.164;5.518;2022-09-09T08:24:33;24.90;59.80
21540;DHT22;10931;52.164;5.518;2022-09-09T08:27:00;24.90;59.80
21540;DHT22;10931;52.164;5.518;2022-09-09T08:29:26;24.90;59.80
21540;DHT22;10931;52.164;5.518;2022-09-09T08:32:00;24.80;59.70
21540;DHT22;10931;52.164;5.518;2022-09-09T08:34:27;24.90;59.80
21540;DHT22;10931;52.164;5.518;2022-09-09T08:36:54;24.90;59.80
21540;DHT22;10931;52.164;5.518;2022-09-09T08:39:24;24.90;59.80
21540;DHT22;10931;52.164;5.518;2022-09-09T08:45:01;24.80;60.50
21540;DHT22;10931;52.164;5.518;2022-09-09T08:50:28;24.80;59.70
21540;DHT22;10931;52.164;5.518;2022-09-09T08:56:01;24.80;59.70
21540;DHT22;10931;52.164;5.518;2022-09-09T08:58:44;24.80;59.80
21540;DHT22;10931;52.164;5.518;2022-09-09T09:01:41;24.80;59.80
21540;DHT22;10931;52.164;5.518;2022-09-09T09:11:58;24.80;59.80
21540;DHT22;10931;52.164;5.518;2022-09-09T09:14:30;24.80;59.80
21540;DHT22;10931;52.164;5.518;2022-09-09T09:17:19;24.80;59.80
21540;DHT22;10931;52.164;5.518;2022-09-09T09:19:48;24.80;59.80
21540;DHT22;10931;52.164;5.518;2022-09-09T09:22:47;24.80;59.80
21540;DHT22;10931;52.164;5.518;2022-09-09T09:25:44;24.80;59.90
21540;DHT22;10931;52.164;5.518;2022-09-09T09:28:24;24.80;59.90
21540;DHT22;10931;52.164;5.518;2022-09-09T09:33:44;24.80;59.90
21540;DHT22;10931;52.164;5.518;2022-09-09T09:36:45;24.80;59.90
21540;DHT22;10931;52.164;5.518;2022-09-09T09:39:32;24.80;59.90
21540;DHT22;10931;52.164;5.518;2022-09-09T09:42:11;24.80;59.90
21540;DHT22;10931;52.164;5.518;2022-09-09T09:44:40;24.80;59.90
21540;DHT22;10931;52.164;5.518;2022-09-09T09:47:21;24.80;59.90
21540;DHT22;10931;52.164;5.518;2022-09-09T09:49:56;24.80;59.90
21540;DHT22;10931;52.164;5.518;2022-09-09T09:52:31;24.80;59.90
21540;DHT22;10931;52.164;5.518;2022-09-09T09:54:58;24.80;59.90
21540;DHT22;10931;52.164;5.518;2022-09-09T09:57:29;24.80;59.90
21540;DHT22;10931;52.164;5.518;2022-09-09T10:00:14;24.80;59.90
21540;DHT22;10931;52.164;5.518;2022-09-09T10:02:45;24.80;59.90
21540;DHT22;10931;52.164;5.518;2022-09-09T10:05:44;24.80;59.90
21540;DHT22;10931;52.164;5.518;2022-09-09T10:08:17;24.80;59.90
21540;DHT22;10931;52.164;5.518;2022-09-09T10:10:57;24.80;59.90
21540;DHT22;10931;52.164;5.518;2022-09-09T10:19:33;24.80;59.90
21540;DHT22;10931;52.164;5.518;2022-09-09T10:33:42;24.80;60.00
21540;DHT22;10931;52.164;5.518;2022-09-09T10:36:23;24.80;60.00
21540;DHT22;10931;52.164;5.518;2022-09-09T10:42:17;24.80;60.10
21540;DHT22;10931;52.164;5.518;2022-09-09T10:53:30;24.80;60.10
21540;DHT22;10931;52.164;5.518;2022-09-09T11:04:53;24.80;60.10
21540;DHT22;10931;52.164;5.518;2022-09-09T11:17:23;24.80;60.10
21540;DHT22;10931;52.164;5.518;2022-09-09T11:19:53;24.80;60.10
21540;DHT22;10931;52.164;5.518;2022-09-09T11:22:48;24.80;60.10
21540;DHT22;10931;52.164;5.518;2022-09-09T11:25:48;24.80;60.10
21540;DHT22;10931;52.164;5.518;2022-09-09T11:34:16;24.80;60.30
21540;DHT22;10931;52.164;5.518;2022-09-09T11:37:00;24.80;60.20
21540;DHT22;10931;52.164;5.518;2022-09-09T11:51:30;24.80;60.30
21540;DHT22;10931;52.164;5.518;2022-09-09T12:32:37;24.80;60.40
21540;DHT22;10931;52.164;5.518;2022-09-09T12:35:37;24.80;60.50
21540;DHT22;10931;52.164;5.518;2022-09-09T12:46:03;24.80;60.50
21540;DHT22;10931;52.164;5.518;2022-09-09T12:49:18;24.80;60.60
21540;DHT22;10931;52.164;5.518;2022-09-09T12:52:30;24.80;60.60
21540;DHT22;10931;52.164;5.518;2022-09-09T12:55:37;24.80;60.60
21540;DHT22;10931;52.164;5.518;2022-09-09T12:58:22;24.80;60.60
21540;DHT22;10931;52.164;5.518;2022-09-09T13:04:23;24.80;60.60
21540;DHT22;10931;52.164;5.518;2022-09-09T13:07:07;24.80;60.60
21540;DHT22;10931;52.164;5.518;2022-09-09T13:09:43;24.80;60.60
21540;DHT22;10931;52.164;5.518;2022-09-09T13:12:14;24.80;60.60
21540;DHT22;10931;52.164;5.518;2022-09-09T13:14:51;24.80;60.60
21540;DHT22;10931;52.164;5.518;2022-09-09T13:17:24;24.80;60.60
21540;DHT22;10931;52.164;5.518;2022-09-09T13:19:55;24.80;60.60
21540;DHT22;10931;52.164;5.518;2022-09-09T13:22:34;24.80;60.60
21540;DHT22;10931;52.164;5.518;2022-09-09T13:27:41;24.80;60.70
21540;DHT22;10931;52.164;5.518;2022-09-09T13:30:22;24.80;60.60
21540;DHT22;10931;52.164;5.518;2022-09-09T13:35:33;24.80;60.60
21540;DHT22;10931;52.164;5.518;2022-09-09T13:38:12;24.80;60.60
21540;DHT22;10931;52.164;5.518;2022-09-09T13:40:58;24.80;60.60
21540;DHT22;10931;52.164;5.518;2022-09-09T13:43:34;24.80;60.60
21540;DHT22;10931;52.164;5.518;2022-09-09T13:46:33;24.80;60.60
21540;DHT22;10931;52.164;5.518;2022-09-09T13:51:50;24.80;60.60
21540;DHT22;10931;52.164;5.518;2022-09-09T13:54:30;24.80;60.60
21540;DHT22;10931;52.164;5.518;2022-09-09T13:57:01;24.80;60.60
21540;DHT22;10931;52.164;5.518;2022-09-09T13:59:28;24.80;60.70
21540;DHT22;10931;52.164;5.518;2022-09-09T14:02:03;24.90;60.70
21540;DHT22;10931;52.164;5.518;2022-09-09T14:04:28;24.80;60.60
21540;DHT22;10931;52.164;5.518;2022-09-09T14:06:57;24.80;60.60
21540;DHT22;10931;52.164;5.518;2022-09-09T14:09:28;24.90;60.70
21540;DHT22;10931;52.164;5.518;2022-09-09T14:11:58;24.90;60.70
21540;DHT22;10931;52.164;5.518;2022-09-09T14:17:16;24.90;60.70
21540;DHT22;10931;52.164;5.518;2022-09-09T14:22:31;24.90;60.70
21540;DHT22;10931;52.164;5.518;2022-09-09T14:25:15;24.80;60.70
21540;DHT22;10931;52.164;5.518;2022-09-09T14:27:50;24.80;60.60
21540;DHT22;10931;52.164;5.518;2022-09-09T14:30:18;24.90;60.70
21540;DHT22;10931;52.164;5.518;2022-09-09T14:32:43;24.90;60.70
21540;DHT22;10931;52.164;5.518;2022-09-09T14:35:09;24.90;60.70
21540;DHT22;10931;52.164;5.518;2022-09-09T14:37:35;24.80;60.70
21540;DHT22;10931;52.164;5.518;2022-09-09T14:40:02;24.90;60.70
21540;DHT22;10931;52.164;5.518;2022-09-09T14:42:29;24.90;60.70
21540;DHT22;10931;52.164;5.518;2022-09-09T14:44:55;24.80;60.70
21540;DHT22;10931;52.164;5.518;2022-09-09T14:47:21;24.80;60.70
21540;DHT22;10931;52.164;5.518;2022-09-09T14:49:47;24.80;60.70
21540;DHT22;10931;52.164;5.518;2022-09-09T14:52:14;24.80;60.70
21540;DHT22;10931;52.164;5.518;2022-09-09T14:54:41;24.80;60.60
21540;DHT22;10931;52.164;5.518;2022-09-09T14:57:09;24.90;60.70
21540;DHT22;10931;52.164;5.518;2022-09-09T14:59:35;24.80;60.60
21540;DHT22;10931;52.164;5.518;2022-09-09T15:02:03;24.90;60.70
21540;DHT22;10931;52.164;5.518;2022-09-09T15:04:33;24.80;60.60
21540;DHT22;10931;52.164;5.518;2022-09-09T15:06:59;24.80;60.70
21540;DHT22;10931;52.164;5.518;2022-09-09T15:09:27;24.90;60.70
21540;DHT22;10931;52.164;5.518;2022-09-09T15:11:53;24.80;60.70
21540;DHT22;10931;52.164;5.518;2022-09-09T15:14:26;24.80;60.70
21540;DHT22;10931;52.164;5.518;2022-09-09T15:16:52;24.80;60.70
21540;DHT22;10931;52.164;5.518;2022-09-09T15:19:21;24.90;60.70
21540;DHT22;10931;52.164;5.518;2022-09-09T15:21:53;24.80;60.70
21540;DHT22;10931;52.164;5.518;2022-09-09T15:24:23;24.80;60.70
21540;DHT22;10931;52.164;5.518;2022-09-09T15:26:49;24.80;60.70
21540;DHT22;10931;52.164;5.518;2022-09-09T15:29:17;24.90;60.80
21540;DHT22;10931;52.164;5.518;2022-09-09T15:31:43;24.90;60.80
21540;DHT22;10931;52.164;5.518;2022-09-09T15:34:15;24.80;60.70
21540;DHT22;10931;52.164;5.518;2022-09-09T15:36:46;24.80;60.70
21540;DHT22;10931;52.164;5.518;2022-09-09T15:39:22;24.90;60.80
21540;DHT22;10931;52.164;5.518;2022-09-09T15:41:50;24.90;60.90
21540;DHT22;10931;52.164;5.518;2022-09-09T15:44:17;24.80;60.80
21540;DHT22;10931;52.164;5.518;2022-09-09T15:46:51;24.80;60.80
21540;DHT22;10931;52.164;5.518;2022-09-09T15:49:30;24.80;60.90
21540;DHT22;10931;52.164;5.518;2022-09-09T15:51:58;24.80;60.90
21540;DHT22;10931;52.164;5.518;2022-09-09T15:54:25;24.80;60.90
21540;DHT22;10931;52.164;5.518;2022-09-09T15:57:00;24.90;60.90
21540;DHT22;10931;52.164;5.518;2022-09-09T15:59:28;24.80;60.90
21540;DHT22;10931;52.164;5.518;2022-09-09T16:02:02;24.90;60.90
21540;DHT22;10931;52.164;5.518;2022-09-09T16:04:28;24.90;60.90
21540;DHT22;10931;52.164;5.518;2022-09-09T16:07:10;24.80;60.90
21540;DHT22;10931;52.164;5.518;2022-09-09T16:09:36;24.90;61.00
21540;DHT22;10931;52.164;5.518;2022-09-09T16:12:02;24.80;60.90
21540;DHT22;10931;52.164;5.518;2022-09-09T16:14:32;24.80;60.90
21540;DHT22;10931;52.164;5.518;2022-09-09T16:17:01;24.90;60.90
21540;DHT22;10931;52.164;5.518;2022-09-09T16:19:28;24.80;60.90
21540;DHT22;10931;52.164;5.518;2022-09-09T16:21:54;24.80;60.90
21540;DHT22;10931;52.164;5.518;2022-09-09T16:24:21;24.90;61.00
21540;DHT22;10931;52.164;5.518;2022-09-09T16:26:53;24.90;60.90
21540;DHT22;10931;52.164;5.518;2022-09-09T16:29:20;24.80;60.90
21540;DHT22;10931;52.164;5.518;2022-09-09T16:31:49;24.90;61.00
21540;DHT22;10931;52.164;5.518;2022-09-09T16:34:26;24.90;60.90
21540;DHT22;10931;52.164;5.518;2022-09-09T16:36:53;24.80;60.90
21540;DHT22;10931;52.164;5.518;2022-09-09T16:39:23;24.80;60.90
21540;DHT22;10931;52.164;5.518;2022-09-09T16:41:49;24.80;60.90
21540;DHT22;10931;52.164;5.518;2022-09-09T16:44:17;24.80;60.80
21540;DHT22;10931;52.164;5.518;2022-09-09T16:46:45;24.80;60.90
21540;DHT22;10931;52.164;5.518;2022-09-09T16:49:13;24.80;60.80
21540;DHT22;10931;52.164;5.518;2022-09-09T16:51:43;24.80;60.90
21540;DHT22;10931;52.164;5.518;2022-09-09T16:54:09;24.80;60.90
21540;DHT22;10931;52.164;5.518;2022-09-09T16:56:38;24.80;60.90
21540;DHT22;10931;52.164;5.518;2022-09-09T16:59:10;24.80;60.80
21540;DHT22;10931;52.164;5.518;2022-09-09T17:01:41;24.90;60.90
21540;DHT22;10931;52.164;5.518;2022-09-09T17:04:13;24.90;60.90
21540;DHT22;10931;52.164;5.518;2022-09-09T17:06:41;24.80;60.80
21540;DHT22;10931;52.164;5.518;2022-09-09T17:09:11;24.80;60.80
21540;DHT22;10931;52.164;5.518;2022-09-09T17:11:41;24.80;60.80
21540;DHT22;10931;52.164;5.518;2022-09-09T17:14:10;24.90;60.90
21540;DHT22;10931;52.164;5.518;2022-09-09T17:16:36;24.80;60.70
21540;DHT22;10931;52.164;5.518;2022-09-09T17:19:06;24.80;60.70
21540;DHT22;10931;52.164;5.518;2022-09-09T17:21:33;24.80;60.80
21540;DHT22;10931;52.164;5.518;2022-09-09T17:24:21;24.80;60.90
21540;DHT22;10931;52.164;5.518;2022-09-09T17:26:53;24.90;60.90
21540;DHT22;10931;52.164;5.518;2022-09-09T17:29:20;24.90;60.90
21540;DHT22;10931;52.164;5.518;2022-09-09T17:32:26;24.80;60.80
21540;DHT22;10931;52.164;5.518;2022-09-09T17:35:02;24.80;60.90
21540;DHT22;10931;52.164;5.518;2022-09-09T17:37:34;24.90;60.90
21540;DHT22;10931;52.164;5.518;2022-09-09T17:40:13;24.90;60.90
21540;DHT22;10931;52.164;5.518;2022-09-09T17:42:42;24.90;60.90
21540;DHT22;10931;52.164;5.518;2022-09-09T17:45:18;24.80;60.90
21540;DHT22;10931;52.164;5.518;2022-09-09T17:48:02;24.80;61.00
21540;DHT22;10931;52.164;5.518;2022-09-09T17:56:44;24.90;61.10
21540;DHT22;10931;52.164;5.518;2022-09-09T18:02:17;24.80;61.10
21540;DHT22;10931;52.164;5.518;2022-09-09T18:04:53;24.90;61.20
21540;DHT22;10931;52.164;5.518;2022-09-09T18:07:22;24.80;61.10
21540;DHT22;10931;52.164;5.518;2022-09-09T18:10:00;24.80;61.10
21540;DHT22;10931;52.164;5.518;2022-09-09T18:12:39;24.80;61.20
21540;DHT22;10931;52.164;5.518;2022-09-09T18:15:10;24.80;61.20
21540;DHT22;10931;52.164;5.518;2022-09-09T18:17:38;24.80;61.10
21540;DHT22;10931;52.164;5.518;2022-09-09T18:20:17;24.90;61.20
21540;DHT22;10931;52.164;5.518;2022-09-09T18:22:48;24.90;61.20
21540;DHT22;10931;52.164;5.518;2022-09-09T18:25:16;24.80;61.10
21540;DHT22;10931;52.164;5.518;2022-09-09T18:27:47;24.80;61.10
21540;DHT22;10931;52.164;5.518;2022-09-09T18:30:16;24.80;61.20
21540;DHT22;10931;52.164;5.518;2022-09-09T18:32:47;24.80;61.10
21540;DHT22;10931;52.164;5.518;2022-09-09T18:35:18;24.80;61.20
21540;DHT22;10931;52.164;5.518;2022-09-09T18:37:46;24.80;61.10
21540;DHT22;10931;52.164;5.518;2022-09-09T18:40:17;24.80;61.10
21540;DHT22;10931;52.164;5.518;2022-09-09T18:42:45;24.80;61.20
21540;DHT22;10931;52.164;5.518;2022-09-09T18:45:10;24.80;61.10
21540;DHT22;10931;52.164;5.518;2022-09-09T18:47:39;24.80;61.20
21540;DHT22;10931;52.164;5.518;2022-09-09T18:50:11;24.80;61.10
21540;DHT22;10931;52.164;5.518;2022-09-09T18:52:42;24.80;61.10
21540;DHT22;10931;52.164;5.518;2022-09-09T18:55:09;24.80;61.10
21540;DHT22;10931;52.164;5.518;2022-09-09T19:03:34;24.80;61.10
21540;DHT22;10931;52.164;5.518;2022-09-09T19:06:16;24.80;61.10
21540;DHT22;10931;52.164;5.518;2022-09-09T19:08:51;24.80;61.10
21540;DHT22;10931;52.164;5.518;2022-09-09T19:11:27;24.80;61.10
21540;DHT22;10931;52.164;5.518;2022-09-09T19:13:55;24.80;61.10
21540;DHT22;10931;52.164;5.518;2022-09-09T19:16:37;24.80;61.10
21540;DHT22;10931;52.164;5.518;2022-09-09T19:19:30;24.80;61.00
21540;DHT22;10931;52.164;5.518;2022-09-09T19:21:58;24.80;61.00
21540;DHT22;10931;52.164;5.518;2022-09-09T19:24:26;24.80;61.10
21540;DHT22;10931;52.164;5.518;2022-09-09T19:26:55;24.80;61.00
21540;DHT22;10931;52.164;5.518;2022-09-09T19:29:24;24.80;61.00
21540;DHT22;10931;52.164;5.518;2022-09-09T19:31:54;24.80;61.00
21540;DHT22;10931;52.164;5.518;2022-09-09T19:34:25;24.80;61.00
21540;DHT22;10931;52.164;5.518;2022-09-09T19:36:51;24.70;61.00
21540;DHT22;10931;52.164;5.518;2022-09-09T19:39:18;24.80;61.00
21540;DHT22;10931;52.164;5.518;2022-09-09T19:41:44;24.80;61.10
21540;DHT22;10931;52.164;5.518;2022-09-09T19:47:10;24.70;61.10
21540;DHT22;10931;52.164;5.518;2022-09-09T19:49:51;24.70;61.00
21540;DHT22;10931;52.164;5.518;2022-09-09T19:52:29;24.70;61.00
21540;DHT22;10931;52.164;5.518;2022-09-09T19:54:57;24.70;61.00
21540;DHT22;10931;52.164;5.518;2022-09-09T19:57:38;24.70;60.90
21540;DHT22;10931;52.164;5.518;2022-09-09T20:00:30;24.70;61.00
21540;DHT22;10931;52.164;5.518;2022-09-09T20:03:23;24.70;61.00
21540;DHT22;10931;52.164;5.518;2022-09-09T20:06:16;24.70;61.80
21540;DHT22;10931;52.164;5.518;2022-09-09T20:08:44;24.70;61.00